createdAt,value
2022-08-01T18:26:35.141Z,52.10
2022-08-01T18:29:02.058Z,52.80
2022-08-01T18:31:29.704Z,53.50
2022-08-01T18:33:57.103Z,53.50
2022-08-01T18:36:33.140Z,54.10
2022-08-01T18:39:05.576Z,55.10
2022-08-01T18:41:35.003Z,55.50
2022-08-01T18:44:05.851Z,55.60
2022-08-01T18:46:40.212Z,56.50
2022-08-01T18:49:09.381Z,57.20
2022-08-01T18:51:40.408Z,57.60
2022-08-01T18:54:11.016Z,57.80
2022-08-01T18:56:38.024Z,57.90
2022-08-01T18:59:05.086Z,58.50
2022-08-01T19:01:32.161Z,59.60
2022-08-01T19:03:59.091Z,59.90
2022-08-01T19:06:27.284Z,61.30
2022-08-01T19:08:58.312Z,61.20
2022-08-01T19:11:28.607Z,61.10
2022-08-01T19:13:55.624Z,61.60
2022-08-01T19:16:22.633Z,61.60
2022-08-01T19:18:49.604Z,62.70
2022-08-01T19:21:16.592Z,63.40
2022-08-01T19:24:02.344Z,64.00
2022-08-01T19:26:31.415Z,64.50
2022-08-01T19:29:04.407Z,64.80
2022-08-01T19:31:31.305Z,66.20
2022-08-01T19:33:58.391Z,67.00
2022-08-01T19:36:26.976Z,66.70
2022-08-01T19:38:55.752Z,66.90
2022-08-01T19:41:23.662Z,67.80
2022-08-01T19:43:51.673Z,68.00
2022-08-01T19:46:19.365Z,67.90
2022-08-01T19:48:53.608Z,68.10
2022-08-01T19:51:32.803Z,69.30
2022-08-01T19:54:05.308Z,69.40
2022-08-01T19:56:39.884Z,69.60
2022-08-01T19:59:10.798Z,70.60
2022-08-01T20:01:37.884Z,70.20
2022-08-01T20:04:06.254Z,71.40
2022-08-01T20:06:34.931Z,72.00
2022-08-01T20:09:02.761Z,72.30
2022-08-01T20:11:29.978Z,72.60
2022-08-01T20:13:57.524Z,73.40
2022-08-01T20:16:25.622Z,73.90
2022-08-01T20:18:53.309Z,74.60
2022-08-01T20:21:21.259Z,75.60
2022-08-01T20:23:50.243Z,75.00
2022-08-01T20:26:18.173Z,75.40
2022-08-01T20:28:49.373Z,76.50
2022-08-01T20:31:17.062Z,75.90
2022-08-01T20:33:47.285Z,76.00
2022-08-01T20:36:25.716Z,75.70
2022-08-01T20:38:55.191Z,76.10
2022-08-01T20:41:25.513Z,78.50
2022-08-01T20:43:55.183Z,77.10
2022-08-01T20:46:27.825Z,77.20
2022-08-01T20:48:57.513Z,77.60
2022-08-01T20:51:28.587Z,77.90
2022-08-01T20:53:56.583Z,78.30
2022-08-01T20:56:49.582Z,78.40
2022-08-01T20:59:56.133Z,78.60
2022-08-01T21:02:52.329Z,78.80
2022-08-01T21:05:58.993Z,79.50
2022-08-01T21:08:50.177Z,79.30
2022-08-01T21:11:21.447Z,80.30
2022-08-01T21:13:50.155Z,80.60
2022-08-01T21:16:28.673Z,80.60
2022-08-01T21:19:18.602Z,80.70
2022-08-01T21:21:53.834Z,80.70
2022-08-01T21:24:29.927Z,83.40
2022-08-01T21:26:58.602Z,81.80
2022-08-01T21:29:26.732Z,82.40
2022-08-01T21:32:11.692Z,82.70
2022-08-01T21:34:39.800Z,81.50
2022-08-01T21:37:09.040Z,83.50
2022-08-01T21:39:43.461Z,83.80
2022-08-01T21:42:18.142Z,83.70
2022-08-01T21:44:47.700Z,83.70
2022-08-01T21:47:15.596Z,83.60
2022-08-01T21:49:43.013Z,83.70
2022-08-01T21:52:18.127Z,83.40
2022-08-01T21:55:04.084Z,84.80
2022-08-01T21:57:44.706Z,84.30
2022-08-01T22:00:25.058Z,84.10
2022-08-01T22:03:11.776Z,84.90
2022-08-01T22:05:50.692Z,85.80
2022-08-01T22:08:28.927Z,85.00
2022-08-01T22:11:00.337Z,86.10
2022-08-01T22:13:27.920Z,85.60
2022-08-01T22:15:57.606Z,87.50
2022-08-01T22:18:26.530Z,87.10
2022-08-01T22:20:57.834Z,87.30
2022-08-01T22:23:24.913Z,87.60
2022-08-01T22:25:54.457Z,88.20
2022-08-01T22:28:23.134Z,89.00
2022-08-01T22:30:52.336Z,90.00
2022-08-01T22:33:20.992Z,89.90
2022-08-01T22:35:51.732Z,90.00
2022-08-01T22:38:20.653Z,90.10
2022-08-01T22:40:53.772Z,90.30
2022-08-01T22:43:26.763Z,90.60
2022-08-01T22:46:20.910Z,90.30
2022-08-01T22:49:12.434Z,90.30
2022-08-01T22:51:55.269Z,90.60
2022-08-01T22:54:43.882Z,90.70
2022-08-01T22:57:16.021Z,90.80
2022-08-01T23:00:00.894Z,91.00
2022-08-01T23:02:33.158Z,91.40
2022-08-01T23:05:21.339Z,91.20
2022-08-01T23:07:53.492Z,91.60
2022-08-01T23:10:26.301Z,91.90
2022-08-01T23:12:55.431Z,92.40
2022-08-01T23:15:23.723Z,92.60
2022-08-01T23:17:51.184Z,92.70
2022-08-01T23:20:19.233Z,93.00
2022-08-01T23:22:47.140Z,92.90
2022-08-01T23:25:15.984Z,93.20
2022-08-01T23:27:54.341Z,93.70
2022-08-01T23:30:34.656Z,93.10
2022-08-01T23:33:02.646Z,93.50
2022-08-01T23:35:30.374Z,93.50
2022-08-01T23:37:58.768Z,93.60
2022-08-01T23:40:30.929Z,94.00
2022-08-01T23:42:58.014Z,95.00
2022-08-01T23:45:24.935Z,94.90
2022-08-01T23:47:52.200Z,97.00
2022-08-01T23:50:19.626Z,95.50
2022-08-01T23:52:53.099Z,95.80
2022-08-01T23:55:36.652Z,97.00
2022-08-01T23:58:06.894Z,96.40
